| time (UTC) | temp C | wind direction | speed KPH | gust KPH | rain 1hr cm | rain 24hr cm | rain mn cm | humidity % | barometer mb |
| 20260506023839 | 20 | 312 | 8.0 | 22.5 | 0.00 | 0.00 | 0.00 | 41 | 1020.5 |
| 20260506023339 | 21 | 300 | 4.8 | 14.5 | 0.00 | 0.00 | 0.00 | 41 | 1020.6 |
| 20260506022325 | 21 | 312 | 8.0 | 19.3 | 0.00 | 0.00 | 0.00 | 41 | 1020.9 |
| 20260506021820 | 21 | 332 | 9.7 | 19.3 | 0.00 | 0.00 | 0.00 | 38 | 1020.9 |
| 20260506021308 | 21 | 292 | 8.0 | 16.1 | 0.00 | 0.00 | 0.00 | 38 | 1020.6 |
| 20260506020807 | 21 | 291 | 9.7 | 16.1 | 0.00 | 0.00 | 0.00 | 38 | 1020.6 |
| 20260506020257 | 21 | 335 | 8.0 | 20.9 | 0.00 | 0.00 | 0.00 | 37 | 1020.6 |
| 20260506015756 | 21 | 352 | 6.4 | 20.9 | 0.00 | 0.00 | 0.00 | 37 | 1020.6 |
| 20260506015249 | 22 | 316 | 9.7 | 19.3 | 0.00 | 0.00 | 0.00 | 36 | 1020.9 |
| 20260506014237 | 22 | 309 | 11.3 | 17.7 | 0.00 | 0.00 | 0.00 | 30 | 1021.0 |
| 20260506013727 | 23 | 339 | 12.9 | 19.3 | 0.00 | 0.00 | 0.00 | 29 | 1021.1 |
| 20260506013225 | 23 | 345 | 12.9 | 24.1 | 0.00 | 0.00 | 0.00 | 29 | 1021.3 |
| 20260506012719 | 23 | 0 | 12.9 | 24.1 | 0.00 | 0.00 | 0.00 | 29 | 1021.2 |
| 20260506012213 | 23 | 11 | 12.9 | 22.5 | 0.00 | 0.00 | 0.00 | 30 | 1021.1 |
| 20260506011707 | 22 | 359 | 12.9 | 22.5 | 0.00 | 0.00 | 0.00 | 29 | 1021.0 |
| 20260506011157 | 22 | 333 | 14.5 | 22.5 | 0.00 | 0.00 | 0.00 | 29 | 1020.9 |
| 20260506010655 | 22 | 326 | 11.3 | 19.3 | 0.00 | 0.00 | 0.00 | 30 | 1020.9 |
| 20260506010149 | 22 | 359 | 12.9 | 25.7 | 0.00 | 0.00 | 0.00 | 30 | 1021.0 |
| 20260506005643 | 23 | 324 | 16.1 | 32.2 | 0.00 | 0.00 | 0.00 | 28 | 1020.9 |
| 20260506004643 | 23 | 347 | 16.1 | 29.0 | 0.00 | 0.00 | 0.00 | 29 | 1021.2 |
| 20260506003643 | 23 | 302 | 16.1 | 29.0 | 0.00 | 0.00 | 0.00 | 30 | 1021.0 |
| 20260506003140 | 22 | 314 | 14.5 | 29.0 | 0.00 | 0.00 | 0.00 | 31 | 1020.9 |
| 20260506002640 | 22 | 319 | 12.9 | 22.5 | 0.00 | 0.00 | 0.00 | 32 | 1020.7 |
| 20260506002141 | 23 | 321 | 14.5 | 29.0 | 0.00 | 0.00 | 0.00 | 31 | 1021.0 |
| 20260506001638 | 23 | 337 | 16.1 | 29.0 | 0.00 | 0.00 | 0.00 | 31 | 1021.2 |
| 20260506001139 | 24 | 311 | 14.5 | 29.0 | 0.00 | 0.00 | 0.00 | 30 | 1021.2 |
| 20260506000638 | 24 | 301 | 12.9 | 24.1 | 0.00 | 0.00 | 0.00 | 30 | 1021.3 |
| 20260506000136 | 24 | 335 | 12.9 | 24.1 | 0.00 | 0.00 | 0.00 | 30 | 1021.2 |
| 20260505235637 | 23 | 15 | 14.5 | 24.1 | 0.00 | 0.00 | 0.00 | 30 | 1021.3 |
| 20260505234638 | 23 | 357 | 14.5 | 24.1 | 0.00 | 0.00 | 0.00 | 31 | 1021.1 |
| 20260505234135 | 23 | 311 | 14.5 | 29.0 | 0.00 | 0.00 | 0.00 | 31 | 1021.2 |
| 20260505233631 | 23 | 32 | 11.3 | 29.0 | 0.00 | 0.00 | 0.00 | 31 | 1021.3 |
| 20260505232631 | 22 | 14 | 9.7 | 17.7 | 0.00 | 0.00 | 0.00 | 35 | 1020.9 |
| 20260505232123 | 22 | 359 | 9.7 | 16.1 | 0.00 | 0.00 | 0.00 | 35 | 1020.9 |
| 20260505231615 | 22 | 285 | 11.3 | 17.7 | 0.00 | 0.00 | 0.00 | 32 | 1020.9 |
| 20260505231103 | 23 | 328 | 12.9 | 20.9 | 0.00 | 0.00 | 0.00 | 33 | 1021.2 |
| 20260505230603 | 23 | 347 | 14.5 | 29.0 | 0.00 | 0.00 | 0.00 | 31 | 1021.3 |
| 20260505230101 | 24 | 335 | 14.5 | 29.0 | 0.00 | 0.00 | 0.00 | 31 | 1021.5 |
| 20260505225600 | 23 | 27 | 14.5 | 24.1 | 0.00 | 0.00 | 0.00 | 31 | 1021.5 |
| 20260505225101 | 23 | 347 | 14.5 | 30.6 | 0.00 | 0.00 | 0.00 | 31 | 1021.4 |
| 20260505224558 | 23 | 1 | 12.9 | 30.6 | 0.00 | 0.00 | 0.00 | 31 | 1021.5 |
| 20260505223558 | 23 | 319 | 12.9 | 25.7 | 0.00 | 0.00 | 0.00 | 30 | 1021.4 |
| 20260505223056 | 23 | 30 | 12.9 | 22.5 | 0.00 | 0.00 | 0.00 | 31 | 1021.3 |
| 20260505221551 | 23 | 6 | 14.5 | 22.5 | 0.00 | 0.00 | 0.00 | 32 | 1021.4 |
| 20260505221045 | 23 | 3 | 12.9 | 22.5 | 0.00 | 0.00 | 0.00 | 32 | 1021.5 |
| 20260505215541 | 22 | 340 | 9.7 | 19.3 | 0.00 | 0.00 | 0.00 | 34 | 1021.0 |
| 20260505215043 | 22 | 315 | 9.7 | 19.3 | 0.00 | 0.00 | 0.00 | 34 | 1021.0 |
| 20260505214540 | 22 | 1 | 11.3 | 22.5 | 0.00 | 0.00 | 0.00 | 32 | 1021.1 |
| 20260505214040 | 22 | 1 | 9.7 | 22.5 | 0.00 | 0.00 | 0.00 | 33 | 1021.1 |
| 20260505213041 | 22 | 337 | 9.7 | 17.7 | 0.00 | 0.00 | 0.00 | 32 | 1021.0 |
| 20260505212534 | 22 | 349 | 9.7 | 17.7 | 0.00 | 0.00 | 0.00 | 33 | 1021.0 |
| 20260505211511 | 22 | 349 | 8.0 | 17.7 | 0.00 | 0.00 | 0.00 | 32 | 1021.2 |
| 20260505210958 | 22 | 353 | 8.0 | 16.1 | 0.00 | 0.00 | 0.00 | 31 | 1021.4 |
| 20260505210457 | 22 | 56 | 9.7 | 17.7 | 0.00 | 0.03 | 0.00 | 32 | 1021.1 |
| 20260505205950 | 22 | 354 | 12.9 | 19.3 | 0.00 | 0.03 | 0.00 | 32 | 1021.1 |
| 20260505204935 | 22 | 328 | 14.5 | 25.7 | 0.00 | 0.03 | 0.00 | 32 | 1020.7 |
| 20260505204427 | 22 | 346 | 12.9 | 25.7 | 0.00 | 0.03 | 0.00 | 32 | 1021.1 |
| 20260505203921 | 22 | 309 | 9.7 | 20.9 | 0.00 | 0.03 | 0.00 | 31 | 1021.2 |
| 20260505203408 | 22 | 310 | 8.0 | 20.9 | 0.00 | 0.03 | 0.00 | 30 | 1021.2 |
| 20260505202907 | 22 | 326 | 11.3 | 24.1 | 0.00 | 0.03 | 0.00 | 31 | 1021.1 |
| 20260505202400 | 22 | 359 | 12.9 | 24.1 | 0.00 | 0.03 | 0.00 | 31 | 1021.3 |
| 20260505201348 | 23 | 297 | 4.8 | 16.1 | 0.00 | 0.03 | 0.00 | 37 | 1021.6 |
| 20260505200842 | 22 | 328 | 8.0 | 16.1 | 0.00 | 0.03 | 0.00 | 36 | 1021.4 |
| 20260505200332 | 22 | 325 | 8.0 | 16.1 | 0.00 | 0.03 | 0.00 | 36 | 1021.4 |
| 20260505195826 | 22 | 229 | 9.7 | 19.3 | 0.00 | 0.03 | 0.00 | 38 | 1021.5 |
| 20260505195325 | 22 | 340 | 9.7 | 20.9 | 0.00 | 0.03 | 0.00 | 37 | 1021.5 |
| 20260505194818 | 22 | 319 | 9.7 | 20.9 | 0.00 | 0.03 | 0.00 | 41 | 1021.6 |
| 20260505194305 | 22 | 0 | 11.3 | 19.3 | 0.00 | 0.03 | 0.00 | 39 | 1021.4 |
| 20260505193804 | 21 | 16 | 11.3 | 19.3 | 0.00 | 0.03 | 0.00 | 37 | 1021.3 |
| 20260505193259 | 22 | 1 | 6.4 | 19.3 | 0.00 | 0.03 | 0.00 | 37 | 1021.6 |
| 20260505192745 | 22 | 359 | 4.8 | 12.9 | 0.00 | 0.03 | 0.00 | 41 | 1021.6 |
| 20260505191740 | 21 | 295 | 9.7 | 17.7 | 0.00 | 0.03 | 0.00 | 36 | 1021.1 |
| 20260505191234 | 21 | 349 | 11.3 | 24.1 | 0.00 | 0.03 | 0.00 | 37 | 1021.1 |
| 20260505190728 | 21 | 9 | 11.3 | 24.1 | 0.00 | 0.03 | 0.00 | 38 | 1021.1 |
| 20260505190216 | 21 | 1 | 6.4 | 17.7 | 0.00 | 0.03 | 0.00 | 37 | 1020.9 |
| 20260505185716 | 20 | 174 | 3.2 | 11.3 | 0.00 | 0.03 | 0.00 | 40 | 1021.0 |
| 20260505185210 | 21 | 314 | 3.2 | 11.3 | 0.00 | 0.03 | 0.00 | 40 | 1021.1 |
| 20260505184703 | 20 | 315 | 3.2 | 6.4 | 0.00 | 0.03 | 0.00 | 43 | 1021.0 |
| 20260505184157 | 20 | 324 | 3.2 | 8.0 | 0.00 | 0.03 | 0.00 | 43 | 1020.7 |
| 20260505183144 | 20 | 283 | 3.2 | 9.7 | 0.00 | 0.03 | 0.00 | 44 | 1020.9 |
| 20260505182634 | 20 | 250 | 3.2 | 9.7 | 0.00 | 0.03 | 0.00 | 44 | 1020.6 |
| 20260505182132 | 20 | 201 | 4.8 | 9.7 | 0.00 | 0.03 | 0.00 | 42 | 1020.6 |
| 20260505181626 | 20 | 342 | 4.8 | 9.7 | 0.00 | 0.03 | 0.00 | 41 | 1020.7 |
| 20260505181121 | 21 | 6 | 4.8 | 12.9 | 0.00 | 0.03 | 0.00 | 39 | 1021.0 |
| 20260505180614 | 20 | 231 | 6.4 | 12.9 | 0.00 | 0.03 | 0.00 | 44 | 1020.7 |
| 20260505180104 | 20 | 171 | 4.8 | 11.3 | 0.00 | 0.03 | 0.00 | 45 | 1020.7 |
| 20260505175602 | 20 | 172 | 4.8 | 11.3 | 0.00 | 0.03 | 0.00 | 43 | 1020.5 |
| 20260505175101 | 20 | 130 | 4.8 | 11.3 | 0.00 | 0.03 | 0.00 | 41 | 1020.7 |
| 20260505174600 | 20 | 284 | 3.2 | 11.3 | 0.00 | 0.03 | 0.00 | 45 | 1020.7 |
| 20260505174058 | 20 | 150 | 1.6 | 8.0 | 0.00 | 0.03 | 0.00 | 44 | 1020.4 |
| 20260505173032 | 19 | 188 | 4.8 | 11.3 | 0.00 | 0.03 | 0.00 | 43 | 1020.3 |
| 20260505172523 | 19 | 210 | 4.8 | 12.9 | 0.00 | 0.03 | 0.00 | 45 | 1020.0 |
| 20260505172020 | 18 | 218 | 3.2 | 12.9 | 0.00 | 0.03 | 0.00 | 49 | 1019.8 |
| 20260505171519 | 18 | 331 | 3.2 | 8.0 | 0.00 | 0.03 | 0.00 | 49 | 1019.4 |
| 20260505171010 | 17 | 15 | 4.8 | 12.9 | 0.00 | 0.03 | 0.00 | 47 | 1019.2 |
| 20260505170503 | 17 | 325 | 6.4 | 12.9 | 0.00 | 0.03 | 0.00 | 50 | 1019.2 |
| 20260505165952 | 17 | 154 | 6.4 | 11.3 | 0.00 | 0.03 | 0.00 | 48 | 1019.0 |
| 20260505165451 | 17 | 169 | 4.8 | 11.3 | 0.00 | 0.03 | 0.00 | 49 | 1018.8 |
| 20260505164944 | 17 | 116 | 3.2 | 9.7 | 0.00 | 0.03 | 0.00 | 50 | 1018.8 |
| 20260505164440 | 17 | 41 | 3.2 | 9.7 | 0.00 | 0.03 | 0.00 | 49 | 1018.9 |
| 20260505163933 | 17 | 72 | 4.8 | 12.9 | 0.00 | 0.03 | 0.00 | 49 | 1019.0 |
| 20260505163424 | 17 | 327 | 4.8 | 12.9 | 0.00 | 0.03 | 0.00 | 48 | 1019.3 |
| 20260505162920 | 18 | 215 | 3.2 | 8.0 | 0.00 | 0.03 | 0.00 | 53 | 1019.3 |
| 20260505162410 | 17 | 202 | 3.2 | 8.0 | 0.00 | 0.03 | 0.00 | 51 | 1018.9 |
| 20260505161908 | 17 | 250 | 4.8 | 9.7 | 0.00 | 0.03 | 0.00 | 54 | 1018.8 |
| 20260505161403 | 16 | 297 | 4.8 | 14.5 | 0.00 | 0.03 | 0.00 | 55 | 1018.6 |
| 20260505160856 | 17 | 323 | 3.2 | 14.5 | 0.00 | 0.03 | 0.00 | 52 | 1018.9 |
| 20260505160350 | 17 | 229 | 1.6 | 11.3 | 0.00 | 0.03 | 0.00 | 54 | 1018.8 |
| 20260505153308 | 16 | 356 | 3.2 | 11.3 | 0.00 | 0.03 | 0.00 | 56 | 1018.5 |
| 20260505152805 | 16 | 276 | 1.6 | 8.0 | 0.00 | 0.03 | 0.00 | 59 | 1018.4 |
| 20260505152258 | 16 | 295 | 3.2 | 8.0 | 0.00 | 0.03 | 0.00 | 62 | 1018.1 |
| 20260505151750 | 15 | 259 | 3.2 | 8.0 | 0.00 | 0.03 | 0.00 | 64 | 1017.9 |
| 20260505150739 | 15 | 285 | 0.0 | 6.4 | 0.00 | 0.03 | 0.00 | 67 | 1017.5 |
| 20260505124931 | 8 | 268 | 4.8 | 8.0 | 0.00 | 0.03 | 0.00 | 83 | 1013.3 |
| 20260505123915 | 8 | 275 | 4.8 | 8.0 | 0.00 | 0.03 | 0.00 | 83 | 1013.2 |
| 20260505122901 | 8 | 262 | 4.8 | 11.3 | 0.00 | 0.03 | 0.00 | 84 | 1013.2 |
| 20260505122356 | 7 | 238 | 4.8 | 9.7 | 0.00 | 0.03 | 0.00 | 84 | 1013.2 |
| 20260505121854 | 8 | 274 | 4.8 | 6.4 | 0.00 | 0.03 | 0.00 | 83 | 1013.2 |
| 20260505121343 | 8 | 274 | 4.8 | 8.0 | 0.00 | 0.03 | 0.00 | 83 | 1013.2 |
| 20260505120329 | 8 | 273 | 4.8 | 11.3 | 0.00 | 0.03 | 0.00 | 83 | 1013.2 |
| 20260505115824 | 8 | 272 | 4.8 | 11.3 | 0.00 | 0.03 | 0.00 | 84 | 1013.2 |
| 20260505115317 | 8 | 272 | 4.8 | 9.7 | 0.00 | 0.03 | 0.00 | 83 | 1013.2 |
| 20260505114811 | 8 | 239 | 3.2 | 9.7 | 0.00 | 0.03 | 0.00 | 83 | 1013.2 |
| 20260505114301 | 8 | 274 | 3.2 | 6.4 | 0.00 | 0.03 | 0.00 | 82 | 1013.3 |
| 20260505113800 | 8 | 293 | 3.2 | 6.4 | 0.00 | 0.03 | 0.00 | 82 | 1013.4 |
| 20260505113253 | 8 | 286 | 3.2 | 6.4 | 0.00 | 0.03 | 0.00 | 82 | 1013.4 |
| 20260505112747 | 8 | 278 | 4.8 | 9.7 | 0.00 | 0.03 | 0.00 | 82 | 1013.6 |
| 20260505112240 | 8 | 269 | 3.2 | 9.7 | 0.00 | 0.03 | 0.00 | 82 | 1013.6 |
| 20260505111735 | 8 | 272 | 3.2 | 6.4 | 0.00 | 0.03 | 0.00 | 82 | 1013.6 |
| 20260505111222 | 8 | 285 | 3.2 | 8.0 | 0.00 | 0.03 | 0.00 | 82 | 1013.7 |
| 20260505101111 | 8 | 308 | 4.8 | 9.7 | 0.00 | 0.03 | 0.00 | 81 | 1013.8 |
| 20260505095051 | 9 | 1 | 4.8 | 9.7 | 0.00 | 0.03 | 0.00 | 79 | 1014.2 |
| 20260505094540 | 9 | 339 | 4.8 | 9.7 | 0.00 | 0.03 | 0.00 | 79 | 1014.3 |
| 20260505093025 | 10 | 276 | 4.8 | 11.3 | 0.00 | 0.03 | 0.00 | 78 | 1014.6 |
| 20260505092519 | 10 | 258 | 4.8 | 11.3 | 0.00 | 0.03 | 0.00 | 78 | 1014.7 |
| 20260505092014 | 10 | 263 | 4.8 | 11.3 | 0.00 | 0.03 | 0.00 | 77 | 1014.7 |
| 20260505091508 | 10 | 245 | 4.8 | 11.3 | 0.00 | 0.03 | 0.00 | 77 | 1014.7 |
| 20260505090957 | 10 | 271 | 4.8 | 9.7 | 0.00 | 0.03 | 0.00 | 78 | 1014.9 |
| 20260505090455 | 10 | 266 | 4.8 | 11.3 | 0.00 | 0.03 | 0.00 | 78 | 1014.9 |
| 20260505085949 | 10 | 264 | 6.4 | 11.3 | 0.00 | 0.03 | 0.00 | 78 | 1014.9 |
| 20260505084937 | 10 | 248 | 6.4 | 14.5 | 0.00 | 0.03 | 0.00 | 78 | 1014.7 |
| 20260505084427 | 10 | 267 | 6.4 | 12.9 | 0.00 | 0.03 | 0.00 | 78 | 1014.7 |
| 20260505083926 | 10 | 268 | 6.4 | 12.9 | 0.00 | 0.03 | 0.00 | 78 | 1014.7 |
| 20260505083421 | 10 | 248 | 6.4 | 11.3 | 0.00 | 0.03 | 0.00 | 78 | 1014.6 |
| 20260505082915 | 10 | 276 | 6.4 | 11.3 | 0.00 | 0.03 | 0.00 | 79 | 1014.6 |
| 20260505082409 | 10 | 281 | 6.4 | 14.5 | 0.00 | 0.03 | 0.00 | 78 | 1014.6 |
| 20260505081355 | 10 | 237 | 6.4 | 14.5 | 0.00 | 0.03 | 0.00 | 78 | 1014.6 |
| 20260505080849 | 10 | 262 | 8.0 | 14.5 | 0.00 | 0.03 | 0.00 | 79 | 1014.6 |
| 20260505080344 | 10 | 264 | 8.0 | 12.9 | 0.00 | 0.03 | 0.00 | 79 | 1014.5 |
| 20260505075839 | 10 | 264 | 8.0 | 16.1 | 0.00 | 0.03 | 0.00 | 79 | 1014.5 |
| 20260505074824 | 9 | 243 | 6.4 | 11.3 | 0.00 | 0.03 | 0.00 | 80 | 1014.4 |
| 20260505074318 | 9 | 272 | 8.0 | 11.3 | 0.00 | 0.03 | 0.00 | 80 | 1014.5 |
| 20260505073306 | 9 | 264 | 8.0 | 12.9 | 0.00 | 0.03 | 0.00 | 80 | 1014.5 |
| 20260505072755 | 9 | 251 | 8.0 | 11.3 | 0.00 | 0.03 | 0.00 | 80 | 1014.3 |
| 20260505071749 | 9 | 264 | 8.0 | 12.9 | 0.00 | 0.03 | 0.00 | 80 | 1014.3 |
| 20260505071242 | 9 | 281 | 8.0 | 11.3 | 0.00 | 0.03 | 0.00 | 81 | 1014.2 |
| 20260505070736 | 9 | 277 | 8.0 | 11.3 | 0.00 | 0.03 | 0.00 | 81 | 1014.2 |
| 20260505070224 | 9 | 278 | 8.0 | 11.3 | 0.00 | 0.03 | 0.00 | 80 | 1014.2 |
| 20260505065721 | 9 | 275 | 8.0 | 9.7 | 0.00 | 0.03 | 0.03 | 80 | 1014.1 |
| 20260505065217 | 9 | 291 | 8.0 | 9.7 | 0.00 | 0.03 | 0.03 | 80 | 1014.1 |
| 20260505064710 | 9 | 274 | 8.0 | 11.3 | 0.00 | 0.03 | 0.03 | 80 | 1014.2 |
| 20260505063654 | 9 | 276 | 8.0 | 16.1 | 0.00 | 0.03 | 0.03 | 80 | 1014.2 |
| 20260505063153 | 9 | 267 | 8.0 | 14.5 | 0.00 | 0.03 | 0.03 | 80 | 1014.1 |
| 20260505062647 | 9 | 277 | 8.0 | 14.5 | 0.00 | 0.03 | 0.03 | 80 | 1014.0 |
| 20260505062136 | 9 | 281 | 8.0 | 14.5 | 0.00 | 0.03 | 0.03 | 79 | 1014.1 |
| 20260505061126 | 9 | 272 | 8.0 | 12.9 | 0.00 | 0.03 | 0.03 | 79 | 1014.3 |
| 20260505060620 | 10 | 266 | 8.0 | 12.9 | 0.00 | 0.03 | 0.03 | 79 | 1014.4 |
| 20260505060114 | 10 | 276 | 8.0 | 12.9 | 0.00 | 0.03 | 0.03 | 79 | 1014.4 |
| 20260505055604 | 10 | 271 | 6.4 | 9.7 | 0.00 | 0.03 | 0.03 | 78 | 1014.6 |
| 20260505055103 | 10 | 268 | 6.4 | 9.7 | 0.00 | 0.03 | 0.03 | 78 | 1014.7 |
| 20260505054555 | 10 | 274 | 6.4 | 8.0 | 0.00 | 0.03 | 0.03 | 78 | 1014.7 |
| 20260505054049 | 10 | 290 | 6.4 | 9.7 | 0.00 | 0.03 | 0.03 | 78 | 1015.2 |
| 20260505053543 | 10 | 284 | 6.4 | 9.7 | 0.00 | 0.03 | 0.03 | 79 | 1015.1 |
| 20260505053033 | 10 | 278 | 6.4 | 9.7 | 0.00 | 0.03 | 0.03 | 79 | 1015.1 |
| 20260505052024 | 10 | 299 | 6.4 | 9.7 | 0.00 | 0.03 | 0.03 | 78 | 1015.0 |
| 20260505051519 | 10 | 294 | 6.4 | 9.7 | 0.00 | 0.03 | 0.03 | 78 | 1015.0 |
| 20260505051013 | 10 | 283 | 6.4 | 9.7 | 0.00 | 0.03 | 0.03 | 78 | 1015.1 |
| 20260505050508 | 10 | 294 | 6.4 | 8.0 | 0.00 | 0.03 | 0.03 | 77 | 1015.1 |
| 20260505035905 | 11 | 268 | 11.3 | 17.7 | 0.00 | 0.03 | 0.03 | 71 | 1014.9 |
| 20260505035405 | 11 | 283 | 9.7 | 14.5 | 0.00 | 0.03 | 0.03 | 71 | 1015.0 |
| 20260505034903 | 12 | 260 | 9.7 | 20.9 | 0.00 | 0.03 | 0.03 | 70 | 1015.1 |
| 20260505034403 | 12 | 289 | 9.7 | 20.9 | 0.00 | 0.03 | 0.03 | 69 | 1014.9 |
| 20260505033905 | 12 | 234 | 8.0 | 14.5 | 0.00 | 0.03 | 0.03 | 69 | 1014.9 |
| 20260505033358 | 12 | 279 | 6.4 | 16.1 | 0.00 | 0.03 | 0.03 | 69 | 1015.0 |
| 20260505032847 | 12 | 245 | 6.4 | 16.1 | 0.00 | 0.03 | 0.03 | 68 | 1014.6 |
| 20260505032343 | 12 | 255 | 6.4 | 16.1 | 0.00 | 0.03 | 0.03 | 68 | 1014.7 |
| 20260505031845 | 12 | 279 | 9.7 | 20.9 | 0.00 | 0.03 | 0.03 | 67 | 1014.7 |
| 20260505031339 | 12 | 269 | 11.3 | 22.5 | 0.00 | 0.03 | 0.03 | 67 | 1014.1 |
| 20260505030341 | 13 | 263 | 11.3 | 20.9 | 0.00 | 0.03 | 0.03 | 66 | 1014.3 |
| 20260505025839 | 13 | 280 | 11.3 | 20.9 | 0.00 | 0.03 | 0.03 | 64 | 1014.3 |
| 20260505025341 | 13 | 276 | 11.3 | 22.5 | 0.00 | 0.03 | 0.03 | 64 | 1014.5 |